createdAt,value
2023-05-06T00:11:03.454Z,14.1
2023-05-06T00:26:13.735Z,14
2023-05-06T00:41:23.877Z,14
2023-05-06T00:56:34.222Z,14
2023-05-06T01:11:44.721Z,13.9
2023-05-06T01:29:10.270Z,14.3
2023-05-06T01:44:23.995Z,13.5
2023-05-06T01:59:33.377Z,13
2023-05-06T02:14:43.049Z,12.9
2023-05-06T02:29:52.750Z,12.9
2023-05-06T02:45:02.791Z,12.8
2023-05-06T03:00:14.834Z,12.6
2023-05-06T03:15:24.879Z,12.7
2023-05-06T03:30:35.183Z,12.7
2023-05-06T03:45:45.286Z,12.7
2023-05-06T04:00:55.270Z,12.7
2023-05-06T04:16:06.065Z,12.4
2023-05-06T04:31:15.579Z,12.3
2023-05-06T04:46:25.846Z,12.2
2023-05-06T05:01:35.547Z,12.2
2023-05-06T05:16:45.761Z,12.2
2023-05-06T05:31:55.989Z,12.3
2023-05-06T05:47:06.053Z,12.5
2023-05-06T06:02:16.433Z,12.6
2023-05-06T06:17:26.259Z,12.7
2023-05-06T06:32:36.958Z,13
2023-05-06T06:52:01.666Z,14.3
2023-05-06T07:07:13.940Z,13.8
2023-05-06T07:22:24.948Z,14
2023-05-06T07:37:35.335Z,14.2
2023-05-06T07:52:45.928Z,14.3
2023-05-06T08:07:56.231Z,14.4
2023-05-06T08:23:06.013Z,14.4
2023-05-06T08:38:16.278Z,14.5
2023-05-06T08:53:26.532Z,14.7
2023-05-06T09:08:36.393Z,14.8
2023-05-06T09:23:46.968Z,15
2023-05-06T09:38:56.932Z,15.1
2023-05-06T09:54:07.204Z,15.2
2023-05-06T10:09:17.482Z,15.4
2023-05-06T10:24:27.472Z,15.6
2023-05-06T10:39:39.874Z,15.9
2023-05-06T10:54:53.931Z,16.2
2023-05-06T11:10:03.683Z,16.4
2023-05-06T11:25:13.654Z,16.6
2023-05-06T11:40:24.457Z,16.7
2023-05-06T11:55:34.774Z,16.9
2023-05-06T12:10:44.553Z,17
2023-05-06T12:25:55.408Z,17.2
2023-05-06T12:41:05.280Z,17.4
2023-05-06T12:56:15.790Z,17.7
2023-05-06T13:11:25.132Z,18.3
2023-05-06T13:26:36.244Z,19
2023-05-06T13:41:45.701Z,19.1
2023-05-06T13:56:57.130Z,20.6
2023-05-06T14:12:07.888Z,21.7
2023-05-06T14:27:18.379Z,22.3
2023-05-06T14:42:29.284Z,22
2023-05-06T14:57:39.415Z,22.5
2023-05-06T15:12:49.311Z,22
2023-05-06T15:27:59.624Z,22.6
2023-05-06T15:43:11.220Z,23
2023-05-06T15:58:35.363Z,23.8
2023-05-06T16:13:45.718Z,23.2
2023-05-06T16:28:55.770Z,24
2023-05-06T16:44:03.950Z,22.1
2023-05-06T16:59:12.930Z,20.7
2023-05-06T17:14:22.117Z,20
2023-05-06T17:29:31.884Z,19.3
2023-05-06T17:44:41.519Z,18.5
2023-05-06T17:59:51.186Z,17.7
2023-05-06T18:15:00.797Z,17
2023-05-06T18:30:10.727Z,16.4
2023-05-06T18:45:19.615Z,15.9
2023-05-06T19:00:29.128Z,15.5
2023-05-06T19:15:38.354Z,15
2023-05-06T19:30:48.418Z,14.7
2023-05-06T19:45:59.132Z,14.4
2023-05-06T20:01:08.695Z,14.1
2023-05-06T20:16:29.422Z,14
2023-05-06T20:31:39.210Z,13.8
2023-05-06T20:46:49.655Z,13.5
2023-05-06T21:01:59.579Z,13.3
2023-05-06T21:17:09.737Z,13.3
2023-05-06T21:32:20.294Z,13.2
2023-05-06T21:47:30.001Z,13.1
2023-05-06T22:02:40.145Z,13.1
2023-05-06T22:17:50.950Z,13
2023-05-06T22:33:01.390Z,12.9
2023-05-06T22:48:11.289Z,12.9
2023-05-06T23:03:20.966Z,12.7
2023-05-06T23:18:31.549Z,12.5
2023-05-06T23:33:41.639Z,12.5
2023-05-06T23:48:51.845Z,12.5
